sensor_id;sensor_type;location;lat;lon;timestamp;temperature;humidity
26230;DHT22;13960;50.860;4.352;2022-08-01T00:01:34;20.60;99.90
26230;DHT22;13960;50.860;4.352;2022-08-01T00:03:59;20.60;99.90
26230;DHT22;13960;50.860;4.352;2022-08-01T00:06:25;20.50;99.90
26230;DHT22;13960;50.860;4.352;2022-08-01T00:08:50;20.50;99.90
26230;DHT22;13960;50.860;4.352;2022-08-01T00:11:16;20.60;99.90
26230;DHT22;13960;50.860;4.352;2022-08-01T00:13:41;20.60;99.90
26230;DHT22;13960;50.860;4.352;2022-08-01T00:16:07;20.60;99.90
26230;DHT22;13960;50.860;4.352;2022-08-01T00:18:33;20.60;99.90
26230;DHT22;13960;50.860;4.352;2022-08-01T00:20:59;20.50;99.90
26230;DHT22;13960;50.860;4.352;2022-08-01T00:23:25;20.50;99.90
26230;DHT22;13960;50.860;4.352;2022-08-01T00:25:50;20.40;99.90
26230;DHT22;13960;50.860;4.352;2022-08-01T00:28:16;20.40;99.90
26230;DHT22;13960;50.860;4.352;2022-08-01T00:30:41;20.30;99.90
26230;DHT22;13960;50.860;4.352;2022-08-01T00:33:07;20.30;99.90
26230;DHT22;13960;50.860;4.352;2022-08-01T00:35:32;20.20;99.90
26230;DHT22;13960;50.860;4.352;2022-08-01T00:37:59;20.20;99.90
26230;DHT22;13960;50.860;4.352;2022-08-01T00:40:24;20.40;99.90
26230;DHT22;13960;50.860;4.352;2022-08-01T00:42:50;20.40;99.90
26230;DHT22;13960;50.860;4.352;2022-08-01T00:45:15;20.30;99.90
26230;DHT22;13960;50.860;4.352;2022-08-01T00:47:41;20.20;99.90
26230;DHT22;13960;50.860;4.352;2022-08-01T00:50:08;20.20;99.90
26230;DHT22;13960;50.860;4.352;2022-08-01T00:52:33;20.20;99.90
26230;DHT22;13960;50.860;4.352;2022-08-01T00:55:00;20.20;99.90
26230;DHT22;13960;50.860;4.352;2022-08-01T00:57:26;20.20;99.90
26230;DHT22;13960;50.860;4.352;2022-08-01T00:59:51;20.20;99.90
26230;DHT22;13960;50.860;4.352;2022-08-01T01:02:17;20.10;99.90
26230;DHT22;13960;50.860;4.352;2022-08-01T01:04:43;20.10;99.90
26230;DHT22;13960;50.860;4.352;2022-08-01T01:07:24;20.10;99.90
26230;DHT22;13960;50.860;4.352;2022-08-01T01:09:56;20.10;99.90
26230;DHT22;13960;50.860;4.352;2022-08-01T01:12:59;20.10;99.90
26230;DHT22;13960;50.860;4.352;2022-08-01T01:15:18;20.10;99.90
26230;DHT22;13960;50.860;4.352;2022-08-01T01:18:01;20.10;99.90
26230;DHT22;13960;50.860;4.352;2022-08-01T01:20:27;20.00;99.90
26230;DHT22;13960;50.860;4.352;2022-08-01T01:30:37;20.00;99.90
26230;DHT22;13960;50.860;4.352;2022-08-01T01:33:05;19.90;99.90
26230;DHT22;13960;50.860;4.352;2022-08-01T01:35:32;20.00;99.90
26230;DHT22;13960;50.860;4.352;2022-08-01T01:38:09;19.90;99.90
26230;DHT22;13960;50.860;4.352;2022-08-01T01:40:36;19.90;99.90
26230;DHT22;13960;50.860;4.352;2022-08-01T01:43:02;19.90;99.90
26230;DHT22;13960;50.860;4.352;2022-08-01T01:45:27;19.90;99.90
26230;DHT22;13960;50.860;4.352;2022-08-01T01:47:53;19.80;99.90
26230;DHT22;13960;50.860;4.352;2022-08-01T01:50:20;19.80;99.90
26230;DHT22;13960;50.860;4.352;2022-08-01T01:52:46;19.70;99.90
26230;DHT22;13960;50.860;4.352;2022-08-01T01:55:11;19.70;99.90
26230;DHT22;13960;50.860;4.352;2022-08-01T01:57:39;19.60;99.90
26230;DHT22;13960;50.860;4.352;2022-08-01T02:00:05;19.60;99.90
26230;DHT22;13960;50.860;4.352;2022-08-01T02:02:33;19.50;99.90
26230;DHT22;13960;50.860;4.352;2022-08-01T02:04:59;19.50;99.90
26230;DHT22;13960;50.860;4.352;2022-08-01T02:07:25;19.70;99.90
26230;DHT22;13960;50.860;4.352;2022-08-01T02:09:51;19.80;99.90
26230;DHT22;13960;50.860;4.352;2022-08-01T02:12:18;19.80;99.90
26230;DHT22;13960;50.860;4.352;2022-08-01T02:14:44;19.80;99.90
26230;DHT22;13960;50.860;4.352;2022-08-01T02:17:12;19.70;99.90
26230;DHT22;13960;50.860;4.352;2022-08-01T02:19:41;19.60;99.90
26230;DHT22;13960;50.860;4.352;2022-08-01T02:24:59;19.60;99.90
26230;DHT22;13960;50.860;4.352;2022-08-01T02:30:12;19.70;99.90
26230;DHT22;13960;50.860;4.352;2022-08-01T02:32:48;19.80;99.90
26230;DHT22;13960;50.860;4.352;2022-08-01T02:35:25;19.90;99.90
26230;DHT22;13960;50.860;4.352;2022-08-01T02:37:51;20.00;99.90
26230;DHT22;13960;50.860;4.352;2022-08-01T02:40:18;20.00;99.90
26230;DHT22;13960;50.860;4.352;2022-08-01T02:42:45;20.00;99.90
26230;DHT22;13960;50.860;4.352;2022-08-01T02:45:11;19.70;99.90
26230;DHT22;13960;50.860;4.352;2022-08-01T02:47:38;19.70;99.90
26230;DHT22;13960;50.860;4.352;2022-08-01T02:50:05;19.70;99.90
26230;DHT22;13960;50.860;4.352;2022-08-01T02:52:33;19.70;99.90
26230;DHT22;13960;50.860;4.352;2022-08-01T02:54:59;19.60;99.90
26230;DHT22;13960;50.860;4.352;2022-08-01T02:57:25;19.70;99.90
26230;DHT22;13960;50.860;4.352;2022-08-01T02:59:51;19.70;99.90
26230;DHT22;13960;50.860;4.352;2022-08-01T03:02:19;19.80;99.90
26230;DHT22;13960;50.860;4.352;2022-08-01T03:04:45;20.00;99.90
26230;DHT22;13960;50.860;4.352;2022-08-01T03:07:11;20.10;99.90
26230;DHT22;13960;50.860;4.352;2022-08-01T03:09:38;20.30;99.90
26230;DHT22;13960;50.860;4.352;2022-08-01T03:12:04;20.40;99.90
26230;DHT22;13960;50.860;4.352;2022-08-01T03:14:31;20.40;99.90
26230;DHT22;13960;50.860;4.352;2022-08-01T03:17:00;20.40;99.90
26230;DHT22;13960;50.860;4.352;2022-08-01T03:19:26;20.20;99.90
26230;DHT22;13960;50.860;4.352;2022-08-01T03:21:53;20.10;99.90
26230;DHT22;13960;50.860;4.352;2022-08-01T03:24:19;20.10;99.90
26230;DHT22;13960;50.860;4.352;2022-08-01T03:26:46;19.90;99.90
26230;DHT22;13960;50.860;4.352;2022-08-01T03:29:14;19.80;99.90
26230;DHT22;13960;50.860;4.352;2022-08-01T03:31:41;19.70;99.90
26230;DHT22;13960;50.860;4.352;2022-08-01T03:34:08;19.70;99.90
26230;DHT22;13960;50.860;4.352;2022-08-01T03:36:34;19.80;99.90
26230;DHT22;13960;50.860;4.352;2022-08-01T03:39:03;19.80;99.90
26230;DHT22;13960;50.860;4.352;2022-08-01T03:41:32;19.50;99.90
26230;DHT22;13960;50.860;4.352;2022-08-01T03:44:03;19.20;99.90
26230;DHT22;13960;50.860;4.352;2022-08-01T03:46:35;19.20;99.90
26230;DHT22;13960;50.860;4.352;2022-08-01T03:49:03;19.10;99.90
26230;DHT22;13960;50.860;4.352;2022-08-01T03:51:31;19.10;99.90
26230;DHT22;13960;50.860;4.352;2022-08-01T03:53:57;19.00;99.90
26230;DHT22;13960;50.860;4.352;2022-08-01T03:56:24;19.10;99.90
26230;DHT22;13960;50.860;4.352;2022-08-01T03:58:50;19.00;99.90
26230;DHT22;13960;50.860;4.352;2022-08-01T04:01:16;19.00;99.90
26230;DHT22;13960;50.860;4.352;2022-08-01T04:03:42;19.10;99.90
26230;DHT22;13960;50.860;4.352;2022-08-01T04:06:08;19.10;99.90
26230;DHT22;13960;50.860;4.352;2022-08-01T04:08:38;19.30;99.90
26230;DHT22;13960;50.860;4.352;2022-08-01T04:11:04;19.20;99.90
26230;DHT22;13960;50.860;4.352;2022-08-01T04:13:30;19.10;99.90
26230;DHT22;13960;50.860;4.352;2022-08-01T04:15:57;19.10;99.90
26230;DHT22;13960;50.860;4.352;2022-08-01T04:18:22;18.90;99.90
26230;DHT22;13960;50.860;4.352;2022-08-01T04:20:48;18.90;99.90
26230;DHT22;13960;50.860;4.352;2022-08-01T04:23:21;19.10;99.90
26230;DHT22;13960;50.860;4.352;2022-08-01T04:25:48;19.10;99.90
26230;DHT22;13960;50.860;4.352;2022-08-01T04:28:14;19.10;99.90
26230;DHT22;13960;50.860;4.352;2022-08-01T04:30:42;19.30;99.90
26230;DHT22;13960;50.860;4.352;2022-08-01T04:33:07;19.50;99.90
26230;DHT22;13960;50.860;4.352;2022-08-01T04:35:36;19.70;99.90
26230;DHT22;13960;50.860;4.352;2022-08-01T04:38:02;19.80;99.90
26230;DHT22;13960;50.860;4.352;2022-08-01T04:40:28;19.60;99.90
26230;DHT22;13960;50.860;4.352;2022-08-01T04:42:54;19.50;99.90
26230;DHT22;13960;50.860;4.352;2022-08-01T04:45:20;19.70;99.90
26230;DHT22;13960;50.860;4.352;2022-08-01T04:47:46;19.70;99.90
26230;DHT22;13960;50.860;4.352;2022-08-01T04:50:13;19.70;99.90
26230;DHT22;13960;50.860;4.352;2022-08-01T04:52:38;19.80;99.90
26230;DHT22;13960;50.860;4.352;2022-08-01T04:55:07;19.80;99.90
26230;DHT22;13960;50.860;4.352;2022-08-01T04:57:37;19.90;99.90
26230;DHT22;13960;50.860;4.352;2022-08-01T05:00:03;20.10;99.90
26230;DHT22;13960;50.860;4.352;2022-08-01T05:02:28;20.20;99.90
26230;DHT22;13960;50.860;4.352;2022-08-01T05:04:54;20.20;99.90
26230;DHT22;13960;50.860;4.352;2022-08-01T05:07:20;20.40;99.90
26230;DHT22;13960;50.860;4.352;2022-08-01T05:09:45;20.30;99.90
26230;DHT22;13960;50.860;4.352;2022-08-01T05:12:11;20.30;99.90
26230;DHT22;13960;50.860;4.352;2022-08-01T05:14:37;20.20;99.90
26230;DHT22;13960;50.860;4.352;2022-08-01T05:17:03;20.10;99.90
26230;DHT22;13960;50.860;4.352;2022-08-01T05:19:32;20.10;99.90
26230;DHT22;13960;50.860;4.352;2022-08-01T05:21:58;20.20;99.90
26230;DHT22;13960;50.860;4.352;2022-08-01T05:24:28;20.20;99.90
26230;DHT22;13960;50.860;4.352;2022-08-01T05:26:54;20.30;99.90
26230;DHT22;13960;50.860;4.352;2022-08-01T05:29:20;20.40;99.90
26230;DHT22;13960;50.860;4.352;2022-08-01T05:31:45;20.60;99.90
26230;DHT22;13960;50.860;4.352;2022-08-01T05:34:11;20.70;99.90
26230;DHT22;13960;50.860;4.352;2022-08-01T05:36:36;20.80;99.90
26230;DHT22;13960;50.860;4.352;2022-08-01T05:39:03;20.70;99.90
26230;DHT22;13960;50.860;4.352;2022-08-01T05:41:29;20.70;99.90
26230;DHT22;13960;50.860;4.352;2022-08-01T05:43:54;20.70;99.90
26230;DHT22;13960;50.860;4.352;2022-08-01T05:46:20;20.70;99.90
26230;DHT22;13960;50.860;4.352;2022-08-01T05:48:45;20.80;99.90
26230;DHT22;13960;50.860;4.352;2022-08-01T05:51:11;20.70;99.90
26230;DHT22;13960;50.860;4.352;2022-08-01T05:53:36;20.70;99.90
26230;DHT22;13960;50.860;4.352;2022-08-01T05:56:02;20.70;99.90
26230;DHT22;13960;50.860;4.352;2022-08-01T05:58:28;20.60;99.90
26230;DHT22;13960;50.860;4.352;2022-08-01T06:00:53;20.60;99.90
26230;DHT22;13960;50.860;4.352;2022-08-01T06:03:19;20.80;99.90
26230;DHT22;13960;50.860;4.352;2022-08-01T06:05:44;20.70;99.90
26230;DHT22;13960;50.860;4.352;2022-08-01T06:08:10;20.60;99.90
26230;DHT22;13960;50.860;4.352;2022-08-01T06:10:35;20.60;99.90
26230;DHT22;13960;50.860;4.352;2022-08-01T06:13:01;20.60;99.90
26230;DHT22;13960;50.860;4.352;2022-08-01T06:15:28;20.40;99.90
26230;DHT22;13960;50.860;4.352;2022-08-01T06:17:54;20.50;99.90
26230;DHT22;13960;50.860;4.352;2022-08-01T06:20:20;20.30;99.90
26230;DHT22;13960;50.860;4.352;2022-08-01T06:22:45;20.20;99.90
26230;DHT22;13960;50.860;4.352;2022-08-01T06:25:11;20.30;99.90
26230;DHT22;13960;50.860;4.352;2022-08-01T06:27:36;20.50;99.90
26230;DHT22;13960;50.860;4.352;2022-08-01T06:30:03;20.70;99.90
26230;DHT22;13960;50.860;4.352;2022-08-01T06:32:28;20.80;99.90
26230;DHT22;13960;50.860;4.352;2022-08-01T06:34:55;20.90;99.90
26230;DHT22;13960;50.860;4.352;2022-08-01T06:37:20;20.90;99.90
26230;DHT22;13960;50.860;4.352;2022-08-01T06:39:46;21.00;99.90
26230;DHT22;13960;50.860;4.352;2022-08-01T06:42:12;21.00;99.90
26230;DHT22;13960;50.860;4.352;2022-08-01T06:44:40;20.80;99.90
26230;DHT22;13960;50.860;4.352;2022-08-01T06:47:05;20.80;99.90
26230;DHT22;13960;50.860;4.352;2022-08-01T06:49:31;21.00;99.90
26230;DHT22;13960;50.860;4.352;2022-08-01T06:51:56;21.20;99.90
26230;DHT22;13960;50.860;4.352;2022-08-01T06:54:22;21.30;99.90
26230;DHT22;13960;50.860;4.352;2022-08-01T06:56:47;21.30;99.90
26230;DHT22;13960;50.860;4.352;2022-08-01T06:59:13;21.30;99.90
26230;DHT22;13960;50.860;4.352;2022-08-01T07:01:38;21.00;99.90
26230;DHT22;13960;50.860;4.352;2022-08-01T07:04:04;21.10;99.90
26230;DHT22;13960;50.860;4.352;2022-08-01T07:06:29;20.70;99.90
26230;DHT22;13960;50.860;4.352;2022-08-01T07:08:55;20.70;99.90
26230;DHT22;13960;50.860;4.352;2022-08-01T07:11:21;20.80;99.90
26230;DHT22;13960;50.860;4.352;2022-08-01T07:13:47;21.00;99.90
26230;DHT22;13960;50.860;4.352;2022-08-01T07:16:16;21.10;99.90
26230;DHT22;13960;50.860;4.352;2022-08-01T07:18:42;21.20;99.90
26230;DHT22;13960;50.860;4.352;2022-08-01T07:21:08;21.20;99.90
26230;DHT22;13960;50.860;4.352;2022-08-01T07:23:33;21.10;99.90
26230;DHT22;13960;50.860;4.352;2022-08-01T07:25:59;21.00;99.90
26230;DHT22;13960;50.860;4.352;2022-08-01T07:28:27;21.00;99.90
26230;DHT22;13960;50.860;4.352;2022-08-01T07:30:52;21.10;99.90
26230;DHT22;13960;50.860;4.352;2022-08-01T07:33:18;21.30;99.90
26230;DHT22;13960;50.860;4.352;2022-08-01T07:35:43;21.30;99.90
26230;DHT22;13960;50.860;4.352;2022-08-01T07:38:08;21.50;99.90
26230;DHT22;13960;50.860;4.352;2022-08-01T07:40:35;21.50;99.90
26230;DHT22;13960;50.860;4.352;2022-08-01T07:43:03;21.70;99.90
26230;DHT22;13960;50.860;4.352;2022-08-01T07:45:31;21.40;99.90
26230;DHT22;13960;50.860;4.352;2022-08-01T07:48:01;21.50;99.90
26230;DHT22;13960;50.860;4.352;2022-08-01T07:50:27;21.60;99.90
26230;DHT22;13960;50.860;4.352;2022-08-01T07:52:52;21.80;99.90
26230;DHT22;13960;50.860;4.352;2022-08-01T07:55:18;22.00;99.90
26230;DHT22;13960;50.860;4.352;2022-08-01T07:57:43;21.70;99.90
26230;DHT22;13960;50.860;4.352;2022-08-01T08:00:09;21.50;99.90
26230;DHT22;13960;50.860;4.352;2022-08-01T08:02:35;21.20;99.90
26230;DHT22;13960;50.860;4.352;2022-08-01T08:05:00;21.10;99.90
26230;DHT22;13960;50.860;4.352;2022-08-01T08:07:26;21.20;99.90
26230;DHT22;13960;50.860;4.352;2022-08-01T08:09:51;21.30;99.90
26230;DHT22;13960;50.860;4.352;2022-08-01T08:12:17;21.40;99.90
26230;DHT22;13960;50.860;4.352;2022-08-01T08:14:42;21.60;99.90
26230;DHT22;13960;50.860;4.352;2022-08-01T08:17:08;21.50;99.90
26230;DHT22;13960;50.860;4.352;2022-08-01T08:19:33;21.40;99.90
26230;DHT22;13960;50.860;4.352;2022-08-01T08:22:02;21.50;99.90
26230;DHT22;13960;50.860;4.352;2022-08-01T08:24:28;21.50;99.90
26230;DHT22;13960;50.860;4.352;2022-08-01T08:26:55;21.70;99.90
26230;DHT22;13960;50.860;4.352;2022-08-01T08:29:21;21.80;99.90
26230;DHT22;13960;50.860;4.352;2022-08-01T08:31:48;21.70;99.90
26230;DHT22;13960;50.860;4.352;2022-08-01T08:34:14;21.60;99.90
26230;DHT22;13960;50.860;4.352;2022-08-01T08:36:40;21.20;99.90
26230;DHT22;13960;50.860;4.352;2022-08-01T08:39:08;21.00;99.90
26230;DHT22;13960;50.860;4.352;2022-08-01T08:41:34;21.10;99.90
26230;DHT22;13960;50.860;4.352;2022-08-01T08:44:02;21.40;99.90
26230;DHT22;13960;50.860;4.352;2022-08-01T08:46:28;21.40;99.90
26230;DHT22;13960;50.860;4.352;2022-08-01T08:48:54;21.60;99.90
26230;DHT22;13960;50.860;4.352;2022-08-01T08:51:20;21.90;99.90
26230;DHT22;13960;50.860;4.352;2022-08-01T08:53:49;21.90;99.90
26230;DHT22;13960;50.860;4.352;2022-08-01T08:56:17;22.20;99.90
26230;DHT22;13960;50.860;4.352;2022-08-01T08:58:43;22.40;99.90
26230;DHT22;13960;50.860;4.352;2022-08-01T09:01:09;22.60;99.90
26230;DHT22;13960;50.860;4.352;2022-08-01T09:03:35;22.90;99.90
26230;DHT22;13960;50.860;4.352;2022-08-01T09:06:01;23.00;99.90
26230;DHT22;13960;50.860;4.352;2022-08-01T09:08:29;23.20;99.90
26230;DHT22;13960;50.860;4.352;2022-08-01T09:10:55;23.50;99.90
26230;DHT22;13960;50.860;4.352;2022-08-01T09:13:21;23.30;99.90
26230;DHT22;13960;50.860;4.352;2022-08-01T09:15:51;22.90;99.90
26230;DHT22;13960;50.860;4.352;2022-08-01T09:18:35;22.80;99.90
26230;DHT22;13960;50.860;4.352;2022-08-01T09:23:32;22.10;99.90
26230;DHT22;13960;50.860;4.352;2022-08-01T09:25:58;21.70;99.90
26230;DHT22;13960;50.860;4.352;2022-08-01T09:28:28;21.70;99.90
26230;DHT22;13960;50.860;4.352;2022-08-01T09:30:58;21.70;99.90
26230;DHT22;13960;50.860;4.352;2022-08-01T09:33:23;21.90;99.90
26230;DHT22;13960;50.860;4.352;2022-08-01T09:35:56;22.00;99.90
26230;DHT22;13960;50.860;4.352;2022-08-01T09:38:25;22.10;99.90
26230;DHT22;13960;50.860;4.352;2022-08-01T09:40:55;22.30;99.90
26230;DHT22;13960;50.860;4.352;2022-08-01T09:43:24;22.60;99.90
26230;DHT22;13960;50.860;4.352;2022-08-01T09:45:50;22.90;99.90
26230;DHT22;13960;50.860;4.352;2022-08-01T09:48:15;23.30;99.90
26230;DHT22;13960;50.860;4.352;2022-08-01T09:50:51;23.50;99.90
26230;DHT22;13960;50.860;4.352;2022-08-01T09:53:17;23.90;99.90
26230;DHT22;13960;50.860;4.352;2022-08-01T09:55:43;24.10;99.90
26230;DHT22;13960;50.860;4.352;2022-08-01T09:58:10;24.20;99.90
26230;DHT22;13960;50.860;4.352;2022-08-01T10:00:37;24.10;99.90
26230;DHT22;13960;50.860;4.352;2022-08-01T10:05:50;24.60;99.90
26230;DHT22;13960;50.860;4.352;2022-08-01T10:08:16;23.70;99.90
26230;DHT22;13960;50.860;4.352;2022-08-01T10:10:43;23.70;99.90
26230;DHT22;13960;50.860;4.352;2022-08-01T10:13:28;23.90;99.90
26230;DHT22;13960;50.860;4.352;2022-08-01T10:15:54;23.90;99.90
26230;DHT22;13960;50.860;4.352;2022-08-01T10:18:19;23.90;99.90
26230;DHT22;13960;50.860;4.352;2022-08-01T10:20:46;24.00;99.90
26230;DHT22;13960;50.860;4.352;2022-08-01T10:23:12;23.90;99.90
26230;DHT22;13960;50.860;4.352;2022-08-01T10:25:40;24.00;99.90
26230;DHT22;13960;50.860;4.352;2022-08-01T10:28:09;23.90;99.90
26230;DHT22;13960;50.860;4.352;2022-08-01T10:30:36;24.00;99.90
26230;DHT22;13960;50.860;4.352;2022-08-01T10:33:05;24.10;99.90
26230;DHT22;13960;50.860;4.352;2022-08-01T10:35:31;24.30;99.90
26230;DHT22;13960;50.860;4.352;2022-08-01T10:37:57;24.40;99.90
26230;DHT22;13960;50.860;4.352;2022-08-01T10:40:23;24.50;99.90
26230;DHT22;13960;50.860;4.352;2022-08-01T10:42:48;24.70;99.90
26230;DHT22;13960;50.860;4.352;2022-08-01T10:45:15;24.90;99.90
26230;DHT22;13960;50.860;4.352;2022-08-01T10:47:46;25.00;99.90
26230;DHT22;13960;50.860;4.352;2022-08-01T10:50:33;25.00;99.90
26230;DHT22;13960;50.860;4.352;2022-08-01T10:53:09;24.40;99.90
26230;DHT22;13960;50.860;4.352;2022-08-01T10:55:45;24.30;99.90
26230;DHT22;13960;50.860;4.352;2022-08-01T10:58:11;24.50;99.90
26230;DHT22;13960;50.860;4.352;2022-08-01T11:00:37;24.60;99.90
26230;DHT22;13960;50.860;4.352;2022-08-01T11:03:03;24.60;99.90
26230;DHT22;13960;50.860;4.352;2022-08-01T11:05:30;24.50;99.90
26230;DHT22;13960;50.860;4.352;2022-08-01T11:07:56;24.40;99.90
26230;DHT22;13960;50.860;4.352;2022-08-01T11:13:04;24.40;99.90
26230;DHT22;13960;50.860;4.352;2022-08-01T11:15:35;24.20;99.90
26230;DHT22;13960;50.860;4.352;2022-08-01T11:18:29;24.30;99.90
26230;DHT22;13960;50.860;4.352;2022-08-01T11:20:57;24.40;99.90
26230;DHT22;13960;50.860;4.352;2022-08-01T11:23:23;24.40;99.90
26230;DHT22;13960;50.860;4.352;2022-08-01T11:28:19;24.50;99.90
26230;DHT22;13960;50.860;4.352;2022-08-01T11:30:47;24.50;99.90
26230;DHT22;13960;50.860;4.352;2022-08-01T11:33:14;24.70;99.90
26230;DHT22;13960;50.860;4.352;2022-08-01T11:38:27;25.00;99.90
26230;DHT22;13960;50.860;4.352;2022-08-01T11:41:14;25.10;99.90
26230;DHT22;13960;50.860;4.352;2022-08-01T11:44:00;24.80;99.90
26230;DHT22;13960;50.860;4.352;2022-08-01T11:54:33;24.70;99.90
26230;DHT22;13960;50.860;4.352;2022-08-01T11:57:03;25.00;99.90
26230;DHT22;13960;50.860;4.352;2022-08-01T11:59:34;25.00;99.90
26230;DHT22;13960;50.860;4.352;2022-08-01T12:02:00;25.10;99.90
26230;DHT22;13960;50.860;4.352;2022-08-01T12:04:43;25.10;99.90
26230;DHT22;13960;50.860;4.352;2022-08-01T12:07:13;24.90;99.90
26230;DHT22;13960;50.860;4.352;2022-08-01T12:09:39;25.00;99.90
26230;DHT22;13960;50.860;4.352;2022-08-01T12:12:05;25.30;99.90
26230;DHT22;13960;50.860;4.352;2022-08-01T12:14:31;25.50;99.90
26230;DHT22;13960;50.860;4.352;2022-08-01T12:16:57;25.70;99.90
26230;DHT22;13960;50.860;4.352;2022-08-01T12:19:23;26.00;99.90
26230;DHT22;13960;50.860;4.352;2022-08-01T12:24:55;25.50;99.90
26230;DHT22;13960;50.860;4.352;2022-08-01T12:27:24;25.30;99.90
26230;DHT22;13960;50.860;4.352;2022-08-01T12:29:50;25.50;99.90
26230;DHT22;13960;50.860;4.352;2022-08-01T12:32:28;26.10;99.90
26230;DHT22;13960;50.860;4.352;2022-08-01T12:35:00;26.10;99.90
26230;DHT22;13960;50.860;4.352;2022-08-01T12:37:26;25.90;99.90
26230;DHT22;13960;50.860;4.352;2022-08-01T12:39:52;26.10;99.90
26230;DHT22;13960;50.860;4.352;2022-08-01T12:42:18;26.00;99.90
26230;DHT22;13960;50.860;4.352;2022-08-01T12:44:44;26.00;99.90
26230;DHT22;13960;50.860;4.352;2022-08-01T12:47:10;26.10;99.90
26230;DHT22;13960;50.860;4.352;2022-08-01T12:49:36;26.10;99.90
26230;DHT22;13960;50.860;4.352;2022-08-01T12:52:02;26.10;99.90
26230;DHT22;13960;50.860;4.352;2022-08-01T12:54:28;26.30;99.90
26230;DHT22;13960;50.860;4.352;2022-08-01T12:56:54;26.50;99.90
26230;DHT22;13960;50.860;4.352;2022-08-01T12:59:23;26.60;99.90
26230;DHT22;13960;50.860;4.352;2022-08-01T13:01:53;26.50;99.90
26230;DHT22;13960;50.860;4.352;2022-08-01T13:04:20;26.50;99.90
26230;DHT22;13960;50.860;4.352;2022-08-01T13:06:46;26.40;99.90
26230;DHT22;13960;50.860;4.352;2022-08-01T13:09:11;26.30;99.90
26230;DHT22;13960;50.860;4.352;2022-08-01T13:11:39;26.40;99.90
26230;DHT22;13960;50.860;4.352;2022-08-01T13:14:05;26.30;99.90
26230;DHT22;13960;50.860;4.352;2022-08-01T13:16:30;26.50;99.90
26230;DHT22;13960;50.860;4.352;2022-08-01T13:18:57;26.70;99.90
26230;DHT22;13960;50.860;4.352;2022-08-01T13:21:23;26.70;99.90
26230;DHT22;13960;50.860;4.352;2022-08-01T13:24:02;27.00;99.90
26230;DHT22;13960;50.860;4.352;2022-08-01T13:29:16;27.00;99.90
26230;DHT22;13960;50.860;4.352;2022-08-01T13:31:42;26.70;99.90
26230;DHT22;13960;50.860;4.352;2022-08-01T13:34:07;26.70;99.90
26230;DHT22;13960;50.860;4.352;2022-08-01T13:36:34;26.50;99.90
26230;DHT22;13960;50.860;4.352;2022-08-01T13:39:01;26.40;99.90
26230;DHT22;13960;50.860;4.352;2022-08-01T13:41:45;26.30;99.90
26230;DHT22;13960;50.860;4.352;2022-08-01T13:44:11;26.50;99.90
26230;DHT22;13960;50.860;4.352;2022-08-01T13:46:38;26.60;99.90
26230;DHT22;13960;50.860;4.352;2022-08-01T13:49:04;26.50;99.90
26230;DHT22;13960;50.860;4.352;2022-08-01T13:51:30;26.60;99.90
26230;DHT22;13960;50.860;4.352;2022-08-01T13:53:55;26.70;99.90
26230;DHT22;13960;50.860;4.352;2022-08-01T13:56:22;26.80;99.90
26230;DHT22;13960;50.860;4.352;2022-08-01T13:58:47;27.20;99.90
26230;DHT22;13960;50.860;4.352;2022-08-01T14:01:13;27.60;99.90
26230;DHT22;13960;50.860;4.352;2022-08-01T14:03:39;27.10;99.90
26230;DHT22;13960;50.860;4.352;2022-08-01T14:06:04;26.80;99.90
26230;DHT22;13960;50.860;4.352;2022-08-01T14:08:31;26.70;99.90
26230;DHT22;13960;50.860;4.352;2022-08-01T14:10:56;27.10;99.90
26230;DHT22;13960;50.860;4.352;2022-08-01T14:13:24;27.10;99.90
26230;DHT22;13960;50.860;4.352;2022-08-01T14:15:50;27.30;99.90
26230;DHT22;13960;50.860;4.352;2022-08-01T14:18:16;28.00;99.90
26230;DHT22;13960;50.860;4.352;2022-08-01T14:20:42;27.90;99.90
26230;DHT22;13960;50.860;4.352;2022-08-01T14:23:08;28.00;99.90
26230;DHT22;13960;50.860;4.352;2022-08-01T14:25:38;28.40;99.90
26230;DHT22;13960;50.860;4.352;2022-08-01T14:28:04;28.10;99.90
26230;DHT22;13960;50.860;4.352;2022-08-01T14:30:33;28.10;99.90
26230;DHT22;13960;50.860;4.352;2022-08-01T14:32:59;28.00;99.90
26230;DHT22;13960;50.860;4.352;2022-08-01T14:35:24;27.80;99.90
26230;DHT22;13960;50.860;4.352;2022-08-01T14:37:50;27.50;99.90
26230;DHT22;13960;50.860;4.352;2022-08-01T14:40:16;27.50;99.90
26230;DHT22;13960;50.860;4.352;2022-08-01T14:42:42;27.60;99.90
26230;DHT22;13960;50.860;4.352;2022-08-01T14:45:10;27.60;99.90
26230;DHT22;13960;50.860;4.352;2022-08-01T14:47:36;27.20;99.90
26230;DHT22;13960;50.860;4.352;2022-08-01T14:50:03;26.80;99.90
26230;DHT22;13960;50.860;4.352;2022-08-01T14:52:28;27.50;99.90
26230;DHT22;13960;50.860;4.352;2022-08-01T14:54:54;28.20;99.90
26230;DHT22;13960;50.860;4.352;2022-08-01T14:57:19;28.80;99.90
26230;DHT22;13960;50.860;4.352;2022-08-01T14:59:45;29.50;99.90
26230;DHT22;13960;50.860;4.352;2022-08-01T15:02:11;29.80;99.90
26230;DHT22;13960;50.860;4.352;2022-08-01T15:04:38;31.80;99.90
26230;DHT22;13960;50.860;4.352;2022-08-01T15:07:04;32.20;99.90
26230;DHT22;13960;50.860;4.352;2022-08-01T15:09:29;32.50;99.90
26230;DHT22;13960;50.860;4.352;2022-08-01T15:11:55;32.70;99.90
26230;DHT22;13960;50.860;4.352;2022-08-01T15:14:20;32.40;99.90
26230;DHT22;13960;50.860;4.352;2022-08-01T15:17:06;33.20;99.90
26230;DHT22;13960;50.860;4.352;2022-08-01T15:19:33;32.30;99.80
26230;DHT22;13960;50.860;4.352;2022-08-01T15:21:58;32.20;99.30
26230;DHT22;13960;50.860;4.352;2022-08-01T15:24:26;32.40;98.60
26230;DHT22;13960;50.860;4.352;2022-08-01T15:26:52;32.90;97.90
26230;DHT22;13960;50.860;4.352;2022-08-01T15:29:20;33.30;97.30
26230;DHT22;13960;50.860;4.352;2022-08-01T15:31:45;33.70;96.80
26230;DHT22;13960;50.860;4.352;2022-08-01T15:34:11;34.00;96.20
26230;DHT22;13960;50.860;4.352;2022-08-01T15:36:37;33.30;96.30
26230;DHT22;13960;50.860;4.352;2022-08-01T15:39:02;32.40;96.60
26230;DHT22;13960;50.860;4.352;2022-08-01T15:41:29;31.50;97.90
26230;DHT22;13960;50.860;4.352;2022-08-01T15:43:54;30.60;98.40
26230;DHT22;13960;50.860;4.352;2022-08-01T15:48:50;30.30;99.40
26230;DHT22;13960;50.860;4.352;2022-08-01T15:51:15;29.60;98.80
26230;DHT22;13960;50.860;4.352;2022-08-01T15:53:42;28.60;99.90
26230;DHT22;13960;50.860;4.352;2022-08-01T15:56:10;28.50;99.90
26230;DHT22;13960;50.860;4.352;2022-08-01T15:58:39;28.70;99.90
26230;DHT22;13960;50.860;4.352;2022-08-01T16:01:07;28.50;99.90
26230;DHT22;13960;50.860;4.352;2022-08-01T16:03:32;28.40;99.90
26230;DHT22;13960;50.860;4.352;2022-08-01T16:05:59;28.10;99.90
26230;DHT22;13960;50.860;4.352;2022-08-01T16:08:25;27.80;99.90
26230;DHT22;13960;50.860;4.352;2022-08-01T16:10:52;27.90;99.90
26230;DHT22;13960;50.860;4.352;2022-08-01T16:13:18;27.80;99.90